sensor_id;sensor_type;location;lat;lon;timestamp;P1;durP1;ratioP1;P2;durP2;ratioP2
70675;SDS011;59069;52.242;20.900;2023-02-18T00:01:54;8.33;;;1.60;;
70675;SDS011;59069;52.242;20.900;2023-02-18T00:04:20;6.57;;;1.13;;
70675;SDS011;59069;52.242;20.900;2023-02-18T00:06:45;5.27;;;1.00;;
70675;SDS011;59069;52.242;20.900;2023-02-18T00:09:11;7.97;;;1.47;;
70675;SDS011;59069;52.242;20.900;2023-02-18T00:11:37;7.78;;;1.15;;
70675;SDS011;59069;52.242;20.900;2023-02-18T00:14:04;7.45;;;0.90;;
70675;SDS011;59069;52.242;20.900;2023-02-18T00:16:31;10.30;;;1.50;;
70675;SDS011;59069;52.242;20.900;2023-02-18T00:18:57;5.72;;;0.70;;
70675;SDS011;59069;52.242;20.900;2023-02-18T00:21:24;9.43;;;1.02;;
70675;SDS011;59069;52.242;20.900;2023-02-18T00:23:50;7.90;;;1.00;;
70675;SDS011;59069;52.242;20.900;2023-02-18T00:26:17;8.27;;;1.00;;
70675;SDS011;59069;52.242;20.900;2023-02-18T00:28:43;7.97;;;1.23;;
70675;SDS011;59069;52.242;20.900;2023-02-18T00:31:14;7.20;;;0.95;;
70675;SDS011;59069;52.242;20.900;2023-02-18T00:33:41;6.77;;;1.00;;
70675;SDS011;59069;52.242;20.900;2023-02-18T00:36:08;8.27;;;1.25;;
70675;SDS011;59069;52.242;20.900;2023-02-18T00:38:36;8.65;;;1.17;;
70675;SDS011;59069;52.242;20.900;2023-02-18T00:41:02;7.20;;;1.13;;
70675;SDS011;59069;52.242;20.900;2023-02-18T00:43:28;5.95;;;0.93;;
70675;SDS011;59069;52.242;20.900;2023-02-18T00:45:53;8.37;;;1.30;;
70675;SDS011;59069;52.242;20.900;2023-02-18T00:48:19;7.10;;;1.65;;
70675;SDS011;59069;52.242;20.900;2023-02-18T00:50:45;6.83;;;1.00;;
70675;SDS011;59069;52.242;20.900;2023-02-18T00:53:11;7.95;;;1.38;;
70675;SDS011;59069;52.242;20.900;2023-02-18T00:55:38;8.82;;;1.20;;
70675;SDS011;59069;52.242;20.900;2023-02-18T00:58:07;11.37;;;0.90;;
70675;SDS011;59069;52.242;20.900;2023-02-18T01:00:33;9.00;;;0.98;;
70675;SDS011;59069;52.242;20.900;2023-02-18T01:02:59;7.82;;;1.35;;
70675;SDS011;59069;52.242;20.900;2023-02-18T01:05:25;8.95;;;1.23;;
70675;SDS011;59069;52.242;20.900;2023-02-18T01:07:50;7.40;;;1.17;;
70675;SDS011;59069;52.242;20.900;2023-02-18T01:10:16;7.17;;;1.00;;
70675;SDS011;59069;52.242;20.900;2023-02-18T01:12:42;7.80;;;1.23;;
70675;SDS011;59069;52.242;20.900;2023-02-18T01:15:08;8.83;;;1.10;;
70675;SDS011;59069;52.242;20.900;2023-02-18T01:17:33;5.75;;;0.90;;
70675;SDS011;59069;52.242;20.900;2023-02-18T01:19:59;7.00;;;1.30;;
70675;SDS011;59069;52.242;20.900;2023-02-18T01:22:25;12.60;;;1.30;;
70675;SDS011;59069;52.242;20.900;2023-02-18T01:24:51;7.55;;;1.20;;
70675;SDS011;59069;52.242;20.900;2023-02-18T01:27:16;6.53;;;0.90;;
70675;SDS011;59069;52.242;20.900;2023-02-18T01:29:42;6.90;;;1.08;;
70675;SDS011;59069;52.242;20.900;2023-02-18T01:32:08;16.70;;;1.50;;
70675;SDS011;59069;52.242;20.900;2023-02-18T01:34:34;6.30;;;1.15;;
70675;SDS011;59069;52.242;20.900;2023-02-18T01:36:59;7.53;;;1.07;;
70675;SDS011;59069;52.242;20.900;2023-02-18T01:39:25;8.60;;;1.10;;
70675;SDS011;59069;52.242;20.900;2023-02-18T01:41:50;5.60;;;1.17;;
70675;SDS011;59069;52.242;20.900;2023-02-18T01:44:18;11.35;;;1.13;;
70675;SDS011;59069;52.242;20.900;2023-02-18T01:46:45;6.17;;;0.83;;
70675;SDS011;59069;52.242;20.900;2023-02-18T01:49:13;8.70;;;1.23;;
70675;SDS011;59069;52.242;20.900;2023-02-18T01:51:52;9.77;;;1.13;;
70675;SDS011;59069;52.242;20.900;2023-02-18T01:54:23;12.13;;;1.23;;
70675;SDS011;59069;52.242;20.900;2023-02-18T01:56:55;6.57;;;0.88;;
70675;SDS011;59069;52.242;20.900;2023-02-18T01:59:27;8.03;;;1.20;;
70675;SDS011;59069;52.242;20.900;2023-02-18T02:01:57;9.38;;;1.05;;
70675;SDS011;59069;52.242;20.900;2023-02-18T02:04:22;5.53;;;1.00;;
70675;SDS011;59069;52.242;20.900;2023-02-18T02:06:48;7.53;;;1.05;;
70675;SDS011;59069;52.242;20.900;2023-02-18T02:09:15;9.30;;;1.33;;
70675;SDS011;59069;52.242;20.900;2023-02-18T02:11:53;9.68;;;1.45;;
70675;SDS011;59069;52.242;20.900;2023-02-18T02:14:38;7.18;;;1.13;;
70675;SDS011;59069;52.242;20.900;2023-02-18T02:17:31;8.85;;;1.23;;
70675;SDS011;59069;52.242;20.900;2023-02-18T02:51:02;7.38;;;0.90;;
70675;SDS011;59069;52.242;20.900;2023-02-18T02:53:30;7.57;;;1.05;;
70675;SDS011;59069;52.242;20.900;2023-02-18T02:55:59;11.70;;;1.50;;
70675;SDS011;59069;52.242;20.900;2023-02-18T02:58:24;8.95;;;1.63;;
70675;SDS011;59069;52.242;20.900;2023-02-18T03:03:24;12.07;;;1.08;;
70675;SDS011;59069;52.242;20.900;2023-02-18T03:11:43;9.48;;;1.17;;
70675;SDS011;59069;52.242;20.900;2023-02-18T03:14:37;8.83;;;0.97;;
70675;SDS011;59069;52.242;20.900;2023-02-18T03:17:25;10.05;;;1.00;;
70675;SDS011;59069;52.242;20.900;2023-02-18T03:20:05;11.80;;;1.42;;
70675;SDS011;59069;52.242;20.900;2023-02-18T03:22:37;7.80;;;1.35;;
70675;SDS011;59069;52.242;20.900;2023-02-18T03:25:05;19.25;;;1.42;;
70675;SDS011;59069;52.242;20.900;2023-02-18T03:27:43;8.40;;;1.20;;
70675;SDS011;59069;52.242;20.900;2023-02-18T03:32:49;8.00;;;0.80;;
70675;SDS011;59069;52.242;20.900;2023-02-18T03:35:20;10.43;;;1.20;;
70675;SDS011;59069;52.242;20.900;2023-02-18T03:37:49;9.90;;;0.93;;
70675;SDS011;59069;52.242;20.900;2023-02-18T03:40:24;12.47;;;1.17;;
70675;SDS011;59069;52.242;20.900;2023-02-18T03:42:55;11.40;;;1.92;;
70675;SDS011;59069;52.242;20.900;2023-02-18T03:45:22;6.60;;;1.08;;
70675;SDS011;59069;52.242;20.900;2023-02-18T03:47:48;7.90;;;1.05;;
70675;SDS011;59069;52.242;20.900;2023-02-18T03:50:14;6.67;;;0.80;;
70675;SDS011;59069;52.242;20.900;2023-02-18T03:52:39;8.55;;;1.40;;
70675;SDS011;59069;52.242;20.900;2023-02-18T03:55:05;8.50;;;1.10;;
70675;SDS011;59069;52.242;20.900;2023-02-18T03:57:31;9.35;;;1.08;;
70675;SDS011;59069;52.242;20.900;2023-02-18T03:59:57;7.65;;;0.90;;
70675;SDS011;59069;52.242;20.900;2023-02-18T04:02:23;11.43;;;1.47;;
70675;SDS011;59069;52.242;20.900;2023-02-18T04:04:48;8.50;;;1.10;;
70675;SDS011;59069;52.242;20.900;2023-02-18T04:07:14;8.52;;;0.80;;
70675;SDS011;59069;52.242;20.900;2023-02-18T04:09:39;11.37;;;1.07;;
70675;SDS011;59069;52.242;20.900;2023-02-18T04:12:05;9.25;;;1.15;;
70675;SDS011;59069;52.242;20.900;2023-02-18T04:14:31;8.23;;;1.50;;
70675;SDS011;59069;52.242;20.900;2023-02-18T04:16:56;7.10;;;1.20;;
70675;SDS011;59069;52.242;20.900;2023-02-18T04:19:22;10.97;;;1.20;;
70675;SDS011;59069;52.242;20.900;2023-02-18T04:21:47;10.40;;;1.33;;
70675;SDS011;59069;52.242;20.900;2023-02-18T04:24:13;8.35;;;1.08;;
70675;SDS011;59069;52.242;20.900;2023-02-18T04:26:38;6.57;;;1.00;;
70675;SDS011;59069;52.242;20.900;2023-02-18T04:29:04;8.67;;;1.20;;
70675;SDS011;59069;52.242;20.900;2023-02-18T04:31:30;7.77;;;0.97;;
70675;SDS011;59069;52.242;20.900;2023-02-18T04:33:55;13.77;;;1.33;;
70675;SDS011;59069;52.242;20.900;2023-02-18T04:36:21;6.28;;;0.90;;
70675;SDS011;59069;52.242;20.900;2023-02-18T04:38:47;7.87;;;0.90;;
70675;SDS011;59069;52.242;20.900;2023-02-18T04:41:12;9.77;;;1.30;;
70675;SDS011;59069;52.242;20.900;2023-02-18T04:43:38;10.67;;;1.13;;
70675;SDS011;59069;52.242;20.900;2023-02-18T04:46:03;9.83;;;1.20;;
70675;SDS011;59069;52.242;20.900;2023-02-18T04:48:29;8.30;;;0.87;;
70675;SDS011;59069;52.242;20.900;2023-02-18T04:50:55;9.83;;;1.27;;
70675;SDS011;59069;52.242;20.900;2023-02-18T04:53:20;11.70;;;1.27;;
70675;SDS011;59069;52.242;20.900;2023-02-18T04:55:49;9.90;;;2.17;;
70675;SDS011;59069;52.242;20.900;2023-02-18T04:58:15;9.23;;;1.10;;
70675;SDS011;59069;52.242;20.900;2023-02-18T05:00:42;8.35;;;0.90;;
70675;SDS011;59069;52.242;20.900;2023-02-18T05:03:08;7.45;;;1.10;;
70675;SDS011;59069;52.242;20.900;2023-02-18T05:05:33;10.00;;;1.03;;
70675;SDS011;59069;52.242;20.900;2023-02-18T05:07:59;6.00;;;0.95;;
70675;SDS011;59069;52.242;20.900;2023-02-18T05:10:25;11.30;;;1.30;;
70675;SDS011;59069;52.242;20.900;2023-02-18T05:12:51;8.20;;;1.08;;
70675;SDS011;59069;52.242;20.900;2023-02-18T05:15:17;5.67;;;0.80;;
70675;SDS011;59069;52.242;20.900;2023-02-18T05:17:42;10.50;;;1.40;;
70675;SDS011;59069;52.242;20.900;2023-02-18T05:20:08;11.60;;;1.30;;
70675;SDS011;59069;52.242;20.900;2023-02-18T05:22:34;7.85;;;0.90;;
70675;SDS011;59069;52.242;20.900;2023-02-18T05:25:00;8.30;;;1.02;;
70675;SDS011;59069;52.242;20.900;2023-02-18T05:27:25;12.73;;;1.70;;
70675;SDS011;59069;52.242;20.900;2023-02-18T05:29:51;10.50;;;1.43;;
70675;SDS011;59069;52.242;20.900;2023-02-18T05:32:16;8.27;;;1.20;;
70675;SDS011;59069;52.242;20.900;2023-02-18T05:34:42;6.83;;;0.93;;
70675;SDS011;59069;52.242;20.900;2023-02-18T05:37:08;8.55;;;1.15;;
70675;SDS011;59069;52.242;20.900;2023-02-18T05:39:33;8.00;;;0.90;;
70675;SDS011;59069;52.242;20.900;2023-02-18T05:41:59;12.53;;;1.80;;
70675;SDS011;59069;52.242;20.900;2023-02-18T05:44:24;8.93;;;1.05;;
70675;SDS011;59069;52.242;20.900;2023-02-18T05:46:57;9.52;;;1.23;;
70675;SDS011;59069;52.242;20.900;2023-02-18T05:49:23;7.93;;;1.10;;
70675;SDS011;59069;52.242;20.900;2023-02-18T05:51:49;8.45;;;1.48;;
70675;SDS011;59069;52.242;20.900;2023-02-18T05:54:15;9.45;;;1.13;;
70675;SDS011;59069;52.242;20.900;2023-02-18T05:56:41;8.23;;;0.93;;
70675;SDS011;59069;52.242;20.900;2023-02-18T05:59:06;9.40;;;1.50;;
70675;SDS011;59069;52.242;20.900;2023-02-18T06:01:32;8.10;;;1.00;;
70675;SDS011;59069;52.242;20.900;2023-02-18T06:03:57;7.43;;;1.07;;
70675;SDS011;59069;52.242;20.900;2023-02-18T06:06:23;9.48;;;1.25;;
70675;SDS011;59069;52.242;20.900;2023-02-18T06:08:49;10.93;;;0.90;;
70675;SDS011;59069;52.242;20.900;2023-02-18T06:11:14;10.33;;;1.20;;
70675;SDS011;59069;52.242;20.900;2023-02-18T06:13:40;9.27;;;1.37;;
70675;SDS011;59069;52.242;20.900;2023-02-18T06:16:05;6.47;;;1.27;;
70675;SDS011;59069;52.242;20.900;2023-02-18T06:18:31;12.52;;;1.30;;
70675;SDS011;59069;52.242;20.900;2023-02-18T06:20:57;10.83;;;1.17;;
70675;SDS011;59069;52.242;20.900;2023-02-18T06:23:22;6.97;;;1.10;;
70675;SDS011;59069;52.242;20.900;2023-02-18T06:25:48;8.83;;;0.80;;
70675;SDS011;59069;52.242;20.900;2023-02-18T06:28:16;9.20;;;1.17;;
70675;SDS011;59069;52.242;20.900;2023-02-18T06:30:43;8.82;;;0.95;;
70675;SDS011;59069;52.242;20.900;2023-02-18T06:33:09;7.47;;;1.60;;
70675;SDS011;59069;52.242;20.900;2023-02-18T06:35:35;8.93;;;1.13;;
70675;SDS011;59069;52.242;20.900;2023-02-18T06:38:00;11.57;;;1.60;;
70675;SDS011;59069;52.242;20.900;2023-02-18T06:40:26;6.95;;;1.05;;
70675;SDS011;59069;52.242;20.900;2023-02-18T06:42:52;8.73;;;1.00;;
70675;SDS011;59069;52.242;20.900;2023-02-18T06:45:17;8.27;;;1.17;;
70675;SDS011;59069;52.242;20.900;2023-02-18T06:47:43;5.70;;;0.90;;
70675;SDS011;59069;52.242;20.900;2023-02-18T06:50:09;9.60;;;1.00;;
70675;SDS011;59069;52.242;20.900;2023-02-18T06:52:35;6.85;;;1.35;;
70675;SDS011;59069;52.242;20.900;2023-02-18T06:55:03;11.13;;;1.40;;
70675;SDS011;59069;52.242;20.900;2023-02-18T06:57:29;9.93;;;1.30;;
70675;SDS011;59069;52.242;20.900;2023-02-18T06:59:55;8.23;;;1.20;;
70675;SDS011;59069;52.242;20.900;2023-02-18T07:02:21;11.33;;;1.40;;
70675;SDS011;59069;52.242;20.900;2023-02-18T07:04:47;8.63;;;1.20;;
70675;SDS011;59069;52.242;20.900;2023-02-18T07:07:12;10.13;;;1.17;;
70675;SDS011;59069;52.242;20.900;2023-02-18T07:09:38;9.70;;;1.00;;
70675;SDS011;59069;52.242;20.900;2023-02-18T07:12:04;7.83;;;0.90;;
70675;SDS011;59069;52.242;20.900;2023-02-18T07:14:29;7.95;;;0.85;;
70675;SDS011;59069;52.242;20.900;2023-02-18T07:16:55;7.77;;;1.00;;
70675;SDS011;59069;52.242;20.900;2023-02-18T07:19:21;10.53;;;1.90;;
70675;SDS011;59069;52.242;20.900;2023-02-18T07:21:46;6.73;;;1.23;;
70675;SDS011;59069;52.242;20.900;2023-02-18T07:24:12;9.77;;;1.30;;
70675;SDS011;59069;52.242;20.900;2023-02-18T07:26:37;10.17;;;1.63;;
70675;SDS011;59069;52.242;20.900;2023-02-18T07:29:03;11.48;;;1.58;;
70675;SDS011;59069;52.242;20.900;2023-02-18T07:31:29;9.27;;;1.53;;
70675;SDS011;59069;52.242;20.900;2023-02-18T07:33:54;10.52;;;1.23;;
70675;SDS011;59069;52.242;20.900;2023-02-18T07:36:20;11.20;;;1.40;;
70675;SDS011;59069;52.242;20.900;2023-02-18T07:38:45;10.20;;;1.45;;
70675;SDS011;59069;52.242;20.900;2023-02-18T07:41:16;8.47;;;1.50;;
70675;SDS011;59069;52.242;20.900;2023-02-18T07:43:44;9.82;;;1.23;;
70675;SDS011;59069;52.242;20.900;2023-02-18T07:46:09;7.10;;;1.00;;
70675;SDS011;59069;52.242;20.900;2023-02-18T07:48:35;11.98;;;1.90;;
70675;SDS011;59069;52.242;20.900;2023-02-18T07:51:04;8.67;;;1.47;;
70675;SDS011;59069;52.242;20.900;2023-02-18T07:53:31;9.40;;;1.45;;
70675;SDS011;59069;52.242;20.900;2023-02-18T07:56:00;11.47;;;1.93;;
70675;SDS011;59069;52.242;20.900;2023-02-18T07:58:30;10.98;;;1.98;;
70675;SDS011;59069;52.242;20.900;2023-02-18T08:00:58;9.57;;;1.38;;
70675;SDS011;59069;52.242;20.900;2023-02-18T08:03:25;9.50;;;1.27;;
70675;SDS011;59069;52.242;20.900;2023-02-18T08:05:52;12.30;;;2.10;;
70675;SDS011;59069;52.242;20.900;2023-02-18T08:08:21;11.43;;;1.40;;
70675;SDS011;59069;52.242;20.900;2023-02-18T08:10:49;12.57;;;1.80;;
70675;SDS011;59069;52.242;20.900;2023-02-18T08:13:15;9.13;;;1.50;;
70675;SDS011;59069;52.242;20.900;2023-02-18T08:15:41;10.10;;;1.10;;
70675;SDS011;59069;52.242;20.900;2023-02-18T08:18:08;6.47;;;1.05;;
70675;SDS011;59069;52.242;20.900;2023-02-18T08:20:39;14.25;;;2.10;;
70675;SDS011;59069;52.242;20.900;2023-02-18T08:23:05;13.70;;;2.07;;
70675;SDS011;59069;52.242;20.900;2023-02-18T08:25:31;14.07;;;2.17;;
70675;SDS011;59069;52.242;20.900;2023-02-18T08:27:57;10.07;;;1.57;;
70675;SDS011;59069;52.242;20.900;2023-02-18T08:30:23;11.50;;;2.17;;
70675;SDS011;59069;52.242;20.900;2023-02-18T08:32:49;9.35;;;1.88;;
70675;SDS011;59069;52.242;20.900;2023-02-18T08:35:15;12.40;;;1.77;;
70675;SDS011;59069;52.242;20.900;2023-02-18T08:37:41;11.68;;;1.80;;
70675;SDS011;59069;52.242;20.900;2023-02-18T08:40:08;12.00;;;1.70;;
70675;SDS011;59069;52.242;20.900;2023-02-18T08:42:36;11.02;;;1.70;;
70675;SDS011;59069;52.242;20.900;2023-02-18T08:45:02;9.98;;;1.75;;
70675;SDS011;59069;52.242;20.900;2023-02-18T08:47:28;14.77;;;2.20;;
70675;SDS011;59069;52.242;20.900;2023-02-18T08:49:54;12.03;;;1.97;;
70675;SDS011;59069;52.242;20.900;2023-02-18T08:52:19;7.50;;;1.30;;
70675;SDS011;59069;52.242;20.900;2023-02-18T08:54:45;9.65;;;1.45;;
70675;SDS011;59069;52.242;20.900;2023-02-18T08:57:10;12.50;;;1.60;;
70675;SDS011;59069;52.242;20.900;2023-02-18T08:59:36;8.77;;;1.20;;
70675;SDS011;59069;52.242;20.900;2023-02-18T09:02:02;10.33;;;1.40;;
70675;SDS011;59069;52.242;20.900;2023-02-18T09:04:28;10.98;;;1.60;;
70675;SDS011;59069;52.242;20.900;2023-02-18T09:06:54;9.48;;;1.50;;
70675;SDS011;59069;52.242;20.900;2023-02-18T09:09:19;9.57;;;1.77;;
70675;SDS011;59069;52.242;20.900;2023-02-18T09:11:45;9.52;;;1.40;;
70675;SDS011;59069;52.242;20.900;2023-02-18T09:14:12;8.33;;;1.40;;
70675;SDS011;59069;52.242;20.900;2023-02-18T09:16:38;15.48;;;1.30;;
70675;SDS011;59069;52.242;20.900;2023-02-18T09:19:05;11.65;;;1.60;;
70675;SDS011;59069;52.242;20.900;2023-02-18T09:21:30;7.75;;;1.45;;
70675;SDS011;59069;52.242;20.900;2023-02-18T09:23:56;8.37;;;1.30;;
70675;SDS011;59069;52.242;20.900;2023-02-18T09:26:22;11.82;;;1.88;;
70675;SDS011;59069;52.242;20.900;2023-02-18T09:28:49;8.55;;;1.65;;
70675;SDS011;59069;52.242;20.900;2023-02-18T09:31:17;9.87;;;1.70;;
70675;SDS011;59069;52.242;20.900;2023-02-18T09:33:48;13.82;;;1.50;;
70675;SDS011;59069;52.242;20.900;2023-02-18T09:36:17;8.10;;;1.55;;
70675;SDS011;59069;52.242;20.900;2023-02-18T09:38:44;8.07;;;1.17;;
70675;SDS011;59069;52.242;20.900;2023-02-18T09:41:23;10.13;;;1.45;;
70675;SDS011;59069;52.242;20.900;2023-02-18T09:44:03;10.47;;;1.27;;
70675;SDS011;59069;52.242;20.900;2023-02-18T09:46:35;7.40;;;1.15;;
70675;SDS011;59069;52.242;20.900;2023-02-18T09:49:16;8.73;;;1.20;;
70675;SDS011;59069;52.242;20.900;2023-02-18T09:51:45;10.57;;;1.50;;
70675;SDS011;59069;52.242;20.900;2023-02-18T09:54:13;8.82;;;1.27;;
70675;SDS011;59069;52.242;20.900;2023-02-18T09:56:41;7.90;;;1.07;;
70675;SDS011;59069;52.242;20.900;2023-02-18T09:59:10;8.38;;;1.40;;
70675;SDS011;59069;52.242;20.900;2023-02-18T10:01:41;12.77;;;1.65;;
70675;SDS011;59069;52.242;20.900;2023-02-18T10:04:16;9.48;;;1.52;;
70675;SDS011;59069;52.242;20.900;2023-02-18T10:06:50;11.75;;;1.65;;
70675;SDS011;59069;52.242;20.900;2023-02-18T10:11:50;10.07;;;1.73;;
70675;SDS011;59069;52.242;20.900;2023-02-18T10:14:19;11.32;;;1.70;;
70675;SDS011;59069;52.242;20.900;2023-02-18T10:16:45;9.65;;;2.05;;
70675;SDS011;59069;52.242;20.900;2023-02-18T10:19:20;8.65;;;1.73;;
70675;SDS011;59069;52.242;20.900;2023-02-18T10:21:50;8.23;;;1.50;;
70675;SDS011;59069;52.242;20.900;2023-02-18T10:26:51;7.95;;;1.40;;
70675;SDS011;59069;52.242;20.900;2023-02-18T10:29:18;8.77;;;1.90;;
70675;SDS011;59069;52.242;20.900;2023-02-18T10:31:45;10.77;;;1.35;;
70675;SDS011;59069;52.242;20.900;2023-02-18T10:34:25;12.35;;;1.92;;
70675;SDS011;59069;52.242;20.900;2023-02-18T10:36:55;11.35;;;2.00;;
70675;SDS011;59069;52.242;20.900;2023-02-18T10:39:33;9.10;;;1.52;;
70675;SDS011;59069;52.242;20.900;2023-02-18T10:42:14;10.57;;;1.40;;
70675;SDS011;59069;52.242;20.900;2023-02-18T10:47:15;9.88;;;1.40;;
70675;SDS011;59069;52.242;20.900;2023-02-18T11:24:38;13.73;;;1.95;;
70675;SDS011;59069;52.242;20.900;2023-02-18T11:27:09;11.13;;;1.80;;
70675;SDS011;59069;52.242;20.900;2023-02-18T11:29:37;13.63;;;1.63;;
70675;SDS011;59069;52.242;20.900;2023-02-18T11:32:03;9.60;;;1.70;;
70675;SDS011;59069;52.242;20.900;2023-02-18T11:34:29;12.10;;;2.10;;
70675;SDS011;59069;52.242;20.900;2023-02-18T11:37:06;11.32;;;1.92;;
70675;SDS011;59069;52.242;20.900;2023-02-18T11:39:35;11.65;;;2.22;;
70675;SDS011;59069;52.242;20.900;2023-02-18T11:42:01;11.93;;;2.27;;
70675;SDS011;59069;52.242;20.900;2023-02-18T11:44:36;11.20;;;2.13;;
70675;SDS011;59069;52.242;20.900;2023-02-18T11:49:39;8.38;;;1.65;;
70675;SDS011;59069;52.242;20.900;2023-02-18T11:52:15;14.68;;;2.05;;
70675;SDS011;59069;52.242;20.900;2023-02-18T11:54:43;13.07;;;1.50;;
70675;SDS011;59069;52.242;20.900;2023-02-18T11:57:28;12.15;;;1.90;;
70675;SDS011;59069;52.242;20.900;2023-02-18T11:59:55;9.82;;;1.80;;
70675;SDS011;59069;52.242;20.900;2023-02-18T12:02:25;8.43;;;1.63;;
70675;SDS011;59069;52.242;20.900;2023-02-18T12:04:55;10.50;;;1.85;;
70675;SDS011;59069;52.242;20.900;2023-02-18T12:07:24;12.43;;;2.30;;
70675;SDS011;59069;52.242;20.900;2023-02-18T12:09:58;7.70;;;1.33;;
70675;SDS011;59069;52.242;20.900;2023-02-18T12:12:31;14.90;;;2.40;;
70675;SDS011;59069;52.242;20.900;2023-02-18T12:15:15;12.38;;;1.80;;
70675;SDS011;59069;52.242;20.900;2023-02-18T12:23:02;12.00;;;2.55;;
70675;SDS011;59069;52.242;20.900;2023-02-18T12:39:31;11.60;;;2.20;;
70675;SDS011;59069;52.242;20.900;2023-02-18T12:42:27;11.70;;;1.98;;
70675;SDS011;59069;52.242;20.900;2023-02-18T12:50:38;11.60;;;1.88;;
70675;SDS011;59069;52.242;20.900;2023-02-18T13:01:44;11.23;;;1.57;;
70675;SDS011;59069;52.242;20.900;2023-02-18T13:04:36;8.13;;;1.65;;
70675;SDS011;59069;52.242;20.900;2023-02-18T13:15:26;10.33;;;1.97;;
70675;SDS011;59069;52.242;20.900;2023-02-18T13:18:01;9.70;;;1.80;;
70675;SDS011;59069;52.242;20.900;2023-02-18T13:20:34;11.15;;;2.22;;
70675;SDS011;59069;52.242;20.900;2023-02-18T13:23:04;12.48;;;1.92;;
70675;SDS011;59069;52.242;20.900;2023-02-18T13:25:33;12.40;;;2.22;;
70675;SDS011;59069;52.242;20.900;2023-02-18T13:30:47;10.63;;;2.50;;
70675;SDS011;59069;52.242;20.900;2023-02-18T13:33:40;11.52;;;1.80;;
70675;SDS011;59069;52.242;20.900;2023-02-18T13:39:07;13.30;;;2.17;;
70675;SDS011;59069;52.242;20.900;2023-02-18T13:41:43;12.60;;;1.97;;
70675;SDS011;59069;52.242;20.900;2023-02-18T13:44:38;8.70;;;1.55;;
70675;SDS011;59069;52.242;20.900;2023-02-18T13:46:55;10.48;;;2.20;;
70675;SDS011;59069;52.242;20.900;2023-02-18T13:49:23;11.95;;;2.00;;
70675;SDS011;59069;52.242;20.900;2023-02-18T13:51:54;11.60;;;2.00;;
70675;SDS011;59069;52.242;20.900;2023-02-18T13:54:24;10.32;;;1.98;;
70675;SDS011;59069;52.242;20.900;2023-02-18T13:57:00;11.32;;;2.13;;
70675;SDS011;59069;52.242;20.900;2023-02-18T14:02:30;9.25;;;1.80;;
70675;SDS011;59069;52.242;20.900;2023-02-18T14:07:45;7.35;;;1.45;;
70675;SDS011;59069;52.242;20.900;2023-02-18T14:17:48;12.77;;;2.00;;
70675;SDS011;59069;52.242;20.900;2023-02-18T14:20:30;12.85;;;2.20;;
70675;SDS011;59069;52.242;20.900;2023-02-18T14:25:50;10.53;;;1.57;;
70675;SDS011;59069;52.242;20.900;2023-02-18T14:47:09;10.85;;;2.45;;
70675;SDS011;59069;52.242;20.900;2023-02-18T14:49:52;11.27;;;3.08;;
70675;SDS011;59069;52.242;20.900;2023-02-18T14:52:29;13.67;;;2.00;;
70675;SDS011;59069;52.242;20.900;2023-02-18T14:55:03;9.85;;;2.03;;
70675;SDS011;59069;52.242;20.900;2023-02-18T14:57:38;10.88;;;2.10;;
70675;SDS011;59069;52.242;20.900;2023-02-18T15:00:20;10.00;;;1.73;;
70675;SDS011;59069;52.242;20.900;2023-02-18T15:02:50;8.80;;;2.25;;
70675;SDS011;59069;52.242;20.900;2023-02-18T15:07:55;13.65;;;2.10;;
70675;SDS011;59069;52.242;20.900;2023-02-18T15:10:21;8.75;;;1.63;;
70675;SDS011;59069;52.242;20.900;2023-02-18T15:13:15;8.55;;;1.65;;
70675;SDS011;59069;52.242;20.900;2023-02-18T15:15:42;9.10;;;1.58;;
70675;SDS011;59069;52.242;20.900;2023-02-18T15:18:15;9.87;;;1.47;;
70675;SDS011;59069;52.242;20.900;2023-02-18T15:21:06;10.98;;;1.70;;
70675;SDS011;59069;52.242;20.900;2023-02-18T15:23:37;7.90;;;1.58;;
70675;SDS011;59069;52.242;20.900;2023-02-18T15:26:04;8.07;;;1.50;;
70675;SDS011;59069;52.242;20.900;2023-02-18T15:28:33;6.05;;;1.20;;
70675;SDS011;59069;52.242;20.900;2023-02-18T15:31:02;6.70;;;0.90;;
70675;SDS011;59069;52.242;20.900;2023-02-18T15:33:28;6.05;;;1.10;;
70675;SDS011;59069;52.242;20.900;2023-02-18T15:36:04;4.60;;;1.17;;
70675;SDS011;59069;52.242;20.900;2023-02-18T15:38:31;6.45;;;1.20;;
70675;SDS011;59069;52.242;20.900;2023-02-18T15:40:57;6.25;;;1.35;;
70675;SDS011;59069;52.242;20.900;2023-02-18T15:43:24;7.33;;;1.40;;
70675;SDS011;59069;52.242;20.900;2023-02-18T15:45:55;8.15;;;1.60;;
70675;SDS011;59069;52.242;20.900;2023-02-18T15:50:53;11.55;;;2.60;;
70675;SDS011;59069;52.242;20.900;2023-02-18T15:53:20;13.48;;;3.22;;
70675;SDS011;59069;52.242;20.900;2023-02-18T15:55:48;11.20;;;2.60;;
70675;SDS011;59069;52.242;20.900;2023-02-18T16:00:51;11.30;;;3.83;;
70675;SDS011;59069;52.242;20.900;2023-02-18T16:03:22;13.85;;;2.53;;
70675;SDS011;59069;52.242;20.900;2023-02-18T16:05:48;12.35;;;2.85;;
70675;SDS011;59069;52.242;20.900;2023-02-18T16:08:16;14.17;;;2.50;;
70675;SDS011;59069;52.242;20.900;2023-02-18T16:10:49;13.10;;;2.75;;
70675;SDS011;59069;52.242;20.900;2023-02-18T16:13:20;12.50;;;2.35;;
70675;SDS011;59069;52.242;20.900;2023-02-18T16:15:47;8.82;;;2.55;;
70675;SDS011;59069;52.242;20.900;2023-02-18T16:18:25;10.93;;;2.08;;
70675;SDS011;59069;52.242;20.900;2023-02-18T16:20:53;13.97;;;3.10;;
70675;SDS011;59069;52.242;20.900;2023-02-18T16:23:25;13.27;;;2.58;;
70675;SDS011;59069;52.242;20.900;2023-02-18T16:25:55;12.85;;;2.70;;
70675;SDS011;59069;52.242;20.900;2023-02-18T16:28:25;13.53;;;2.53;;
70675;SDS011;59069;52.242;20.900;2023-02-18T16:30:55;10.93;;;2.88;;
70675;SDS011;59069;52.242;20.900;2023-02-18T16:33:21;12.48;;;3.22;;
70675;SDS011;59069;52.242;20.900;2023-02-18T16:35:47;12.07;;;3.33;;
70675;SDS011;59069;52.242;20.900;2023-02-18T16:38:17;12.85;;;3.63;;
70675;SDS011;59069;52.242;20.900;2023-02-18T16:40:44;17.77;;;3.85;;
70675;SDS011;59069;52.242;20.900;2023-02-18T16:43:11;9.73;;;3.30;;
70675;SDS011;59069;52.242;20.900;2023-02-18T16:45:43;13.85;;;3.42;;
70675;SDS011;59069;52.242;20.900;2023-02-18T16:48:32;14.57;;;3.45;;
70675;SDS011;59069;52.242;20.900;2023-02-18T16:51:10;10.48;;;3.15;;
70675;SDS011;59069;52.242;20.900;2023-02-18T16:53:42;12.17;;;4.20;;
70675;SDS011;59069;52.242;20.900;2023-02-18T16:56:11;15.93;;;4.70;;
70675;SDS011;59069;52.242;20.900;2023-02-18T16:58:39;15.43;;;4.40;;
70675;SDS011;59069;52.242;20.900;2023-02-18T17:01:05;16.92;;;3.72;;
70675;SDS011;59069;52.242;20.900;2023-02-18T17:03:31;14.03;;;3.70;;
70675;SDS011;59069;52.242;20.900;2023-02-18T17:05:56;11.07;;;3.45;;
70675;SDS011;59069;52.242;20.900;2023-02-18T17:08:23;19.70;;;5.23;;
70675;SDS011;59069;52.242;20.900;2023-02-18T17:10:54;16.45;;;4.47;;
70675;SDS011;59069;52.242;20.900;2023-02-18T17:13:23;14.60;;;4.65;;
70675;SDS011;59069;52.242;20.900;2023-02-18T17:15:51;12.55;;;3.80;;
70675;SDS011;59069;52.242;20.900;2023-02-18T17:18:18;13.37;;;3.43;;
70675;SDS011;59069;52.242;20.900;2023-02-18T17:20:44;12.40;;;3.83;;
70675;SDS011;59069;52.242;20.900;2023-02-18T17:23:17;11.75;;;3.35;;
70675;SDS011;59069;52.242;20.900;2023-02-18T17:25:45;11.63;;;3.45;;
70675;SDS011;59069;52.242;20.900;2023-02-18T17:28:13;12.30;;;3.40;;
70675;SDS011;59069;52.242;20.900;2023-02-18T17:30:43;13.32;;;3.33;;
70675;SDS011;59069;52.242;20.900;2023-02-18T17:33:15;12.48;;;3.40;;
70675;SDS011;59069;52.242;20.900;2023-02-18T17:35:42;12.68;;;3.28;;